Westbrook, Connecticut
Current Conditions -  °F | °C
As of 4:55 AM on Sunday 26 Oct 2014 (Local Time) from KSNC Reporting Station
Broken Clouds Broken Clouds  
Wind Chill: 45°   Ceiling: 7500
Heat Index: 48°   Visibility: 9mi
Dew Point: 43°   Wind: 7mph
Humidity: 82%   Direction: 340°NNW
Pressure: 29.53"   Gusts: NA
Location:  41.29°N, 72.45°W
Report Text: KSNC 260855Z AUTO 34006KT 9SM FEW047 SCT055 BKN075 09/06 A2953 RMK AO2
Loading
Personal Weather Stations






























Interactive Weather Map
Tropical Storm Tracking
New forecast layout! Learn more

10-Day Weather Forecast

Advertisements
Track Severe Weather on mobile